sensor_id;sensor_type;location;lat;lon;timestamp;pressure;altitude;pressure_sealevel;temperature;humidity
76311;BME280;65120;59.304;18.294;2022-12-19T00:00:01;102505.28;;;0.45;71.76
76311;BME280;65120;59.304;18.294;2022-12-19T00:02:28;102501.84;;;0.44;72.03
76311;BME280;65120;59.304;18.294;2022-12-19T00:04:56;102506.97;;;0.44;71.46
76311;BME280;65120;59.304;18.294;2022-12-19T00:07:22;102506.97;;;0.44;71.56
76311;BME280;65120;59.304;18.294;2022-12-19T00:09:49;102501.78;;;0.43;71.97
76311;BME280;65120;59.304;18.294;2022-12-19T00:12:16;102496.63;;;0.43;72.04
76311;BME280;65120;59.304;18.294;2022-12-19T00:14:42;102494.84;;;0.42;71.88
76311;BME280;65120;59.304;18.294;2022-12-19T00:17:09;102494.78;;;0.40;71.64
76311;BME280;65120;59.304;18.294;2022-12-19T00:19:36;102496.47;;;0.40;71.43
76311;BME280;65120;59.304;18.294;2022-12-19T00:22:04;102497.25;;;0.39;71.42
76311;BME280;65120;59.304;18.294;2022-12-19T00:24:31;102504.09;;;0.38;71.92
76311;BME280;65120;59.304;18.294;2022-12-19T00:26:58;102511.81;;;0.38;72.13
76311;BME280;65120;59.304;18.294;2022-12-19T00:29:24;102507.50;;;0.37;71.93
76311;BME280;65120;59.304;18.294;2022-12-19T00:31:51;102498.88;;;0.37;71.48
76311;BME280;65120;59.304;18.294;2022-12-19T00:34:18;102507.41;;;0.36;72.16
76311;BME280;65120;59.304;18.294;2022-12-19T00:36:45;102506.50;;;0.35;71.22
76311;BME280;65120;59.304;18.294;2022-12-19T00:39:13;102507.34;;;0.34;71.64
76311;BME280;65120;59.304;18.294;2022-12-19T00:41:40;102509.00;;;0.34;72.16
76311;BME280;65120;59.304;18.294;2022-12-19T00:44:10;102504.66;;;0.33;71.46
76311;BME280;65120;59.304;18.294;2022-12-19T00:46:37;102510.69;;;0.33;71.78
76311;BME280;65120;59.304;18.294;2022-12-19T00:49:04;102515.69;;;0.30;71.74
76311;BME280;65120;59.304;18.294;2022-12-19T00:51:33;102513.19;;;0.32;71.45
76311;BME280;65120;59.304;18.294;2022-12-19T00:54:01;102510.63;;;0.32;71.92
76311;BME280;65120;59.304;18.294;2022-12-19T00:56:31;102510.63;;;0.32;71.71
76311;BME280;65120;59.304;18.294;2022-12-19T00:58:58;102513.19;;;0.32;71.40
76311;BME280;65120;59.304;18.294;2022-12-19T01:01:26;102507.97;;;0.30;72.23
76311;BME280;65120;59.304;18.294;2022-12-19T01:03:55;102505.38;;;0.30;72.14
76311;BME280;65120;59.304;18.294;2022-12-19T01:06:22;102507.97;;;0.30;71.27
76311;BME280;65120;59.304;18.294;2022-12-19T01:08:49;102511.34;;;0.29;71.44
76311;BME280;65120;59.304;18.294;2022-12-19T01:11:16;102512.22;;;0.30;71.78
76311;BME280;65120;59.304;18.294;2022-12-19T01:14:04;102513.03;;;0.29;71.90
76311;BME280;65120;59.304;18.294;2022-12-19T01:16:30;102501.78;;;0.27;71.81
76311;BME280;65120;59.304;18.294;2022-12-19T01:18:56;102506.94;;;0.27;72.08
76311;BME280;65120;59.304;18.294;2022-12-19T01:21:23;102515.53;;;0.27;71.81
76311;BME280;65120;59.304;18.294;2022-12-19T01:23:50;102517.22;;;0.27;71.24
76311;BME280;65120;59.304;18.294;2022-12-19T01:26:17;102522.34;;;0.27;71.61
76311;BME280;65120;59.304;18.294;2022-12-19T01:28:44;102517.22;;;0.27;72.02
76311;BME280;65120;59.304;18.294;2022-12-19T01:31:12;102516.25;;;0.25;71.59
76311;BME280;65120;59.304;18.294;2022-12-19T01:33:39;102511.97;;;0.25;71.84
76311;BME280;65120;59.304;18.294;2022-12-19T01:36:06;102499.06;;;0.24;71.38
76311;BME280;65120;59.304;18.294;2022-12-19T01:38:34;102495.63;;;0.23;72.23
76311;BME280;65120;59.304;18.294;2022-12-19T01:41:02;102498.97;;;0.22;71.94
76311;BME280;65120;59.304;18.294;2022-12-19T01:43:32;102493.78;;;0.20;71.80
76311;BME280;65120;59.304;18.294;2022-12-19T01:46:02;102486.06;;;0.20;71.70
76311;BME280;65120;59.304;18.294;2022-12-19T01:48:32;102480.03;;;0.20;71.71
76311;BME280;65120;59.304;18.294;2022-12-19T01:51:03;102496.34;;;0.20;71.54
76311;BME280;65120;59.304;18.294;2022-12-19T01:53:34;102484.78;;;0.12;71.93
76311;BME280;65120;59.304;18.294;2022-12-19T01:56:05;102493.78;;;0.20;71.54
76311;BME280;65120;59.304;18.294;2022-12-19T01:58:37;102490.31;;;0.20;72.03
76311;BME280;65120;59.304;18.294;2022-12-19T02:01:05;102495.47;;;0.20;72.10
76311;BME280;65120;59.304;18.294;2022-12-19T02:03:34;102501.47;;;0.20;71.82
76311;BME280;65120;59.304;18.294;2022-12-19T02:06:04;102504.94;;;0.21;71.57
76311;BME280;65120;59.304;18.294;2022-12-19T02:08:32;102501.47;;;0.20;71.70
76311;BME280;65120;59.304;18.294;2022-12-19T02:11:00;102504.84;;;0.19;71.92
76311;BME280;65120;59.304;18.294;2022-12-19T02:13:26;102489.41;;;0.19;71.41
76311;BME280;65120;59.304;18.294;2022-12-19T02:15:58;102491.97;;;0.19;71.53
76311;BME280;65120;59.304;18.294;2022-12-19T02:18:36;102482.63;;;0.20;71.70
76311;BME280;65120;59.304;18.294;2022-12-19T02:21:29;102490.31;;;0.20;71.69
76311;BME280;65120;59.304;18.294;2022-12-19T02:27:49;102504.84;;;0.19;71.75
76311;BME280;65120;59.304;18.294;2022-12-19T02:30:36;102504.84;;;0.19;71.44
76311;BME280;65120;59.304;18.294;2022-12-19T02:33:15;102508.22;;;0.18;71.96
76311;BME280;65120;59.304;18.294;2022-12-19T02:35:46;102512.47;;;0.18;72.06
76311;BME280;65120;59.304;18.294;2022-12-19T02:38:18;102516.75;;;0.17;71.81
76311;BME280;65120;59.304;18.294;2022-12-19T02:40:52;102511.59;;;0.17;71.81
76311;BME280;65120;59.304;18.294;2022-12-19T02:43:24;102503.91;;;0.17;72.10
76311;BME280;65120;59.304;18.294;2022-12-19T02:45:55;102506.47;;;0.17;72.30
76311;BME280;65120;59.304;18.294;2022-12-19T02:48:23;102509.09;;;0.19;71.47
76311;BME280;65120;59.304;18.294;2022-12-19T02:50:50;102508.22;;;0.18;72.13
76311;BME280;65120;59.304;18.294;2022-12-19T02:53:16;102506.47;;;0.17;72.30
76311;BME280;65120;59.304;18.294;2022-12-19T02:55:49;102502.19;;;0.18;72.08
76311;BME280;65120;59.304;18.294;2022-12-19T02:58:37;102516.75;;;0.17;71.90
76311;BME280;65120;59.304;18.294;2022-12-19T03:01:17;102512.47;;;0.18;72.32
76311;BME280;65120;59.304;18.294;2022-12-19T03:03:56;102517.63;;;0.18;71.84
76311;BME280;65120;59.304;18.294;2022-12-19T03:06:31;102518.41;;;0.17;72.04
76311;BME280;65120;59.304;18.294;2022-12-19T03:09:02;102515.78;;;0.15;71.82
76311;BME280;65120;59.304;18.294;2022-12-19T03:11:35;102511.44;;;0.14;72.33
76311;BME280;65120;59.304;18.294;2022-12-19T03:14:05;102514.81;;;0.13;71.66
76311;BME280;65120;59.304;18.294;2022-12-19T03:16:35;102509.66;;;0.13;72.10
76311;BME280;65120;59.304;18.294;2022-12-19T03:19:02;102511.34;;;0.13;71.84
76311;BME280;65120;59.304;18.294;2022-12-19T03:21:33;102513.91;;;0.13;72.20
76311;BME280;65120;59.304;18.294;2022-12-19T03:24:03;102514.81;;;0.13;71.83
76311;BME280;65120;59.304;18.294;2022-12-19T03:26:33;102513.91;;;0.13;72.00
76311;BME280;65120;59.304;18.294;2022-12-19T03:29:07;102507.91;;;0.12;71.51
76311;BME280;65120;59.304;18.294;2022-12-19T03:31:38;102511.25;;;0.11;71.73
76311;BME280;65120;59.304;18.294;2022-12-19T03:34:10;102509.50;;;0.10;71.47
76311;BME280;65120;59.304;18.294;2022-12-19T03:36:41;102500.03;;;0.09;71.92
76311;BME280;65120;59.304;18.294;2022-12-19T03:39:10;102506.88;;;0.09;71.54
76311;BME280;65120;59.304;18.294;2022-12-19T03:41:43;102510.16;;;0.06;71.77
76311;BME280;65120;59.304;18.294;2022-12-19T03:44:31;102505.81;;;0.05;72.10
76311;BME280;65120;59.304;18.294;2022-12-19T03:47:05;102498.09;;;0.05;72.45
76311;BME280;65120;59.304;18.294;2022-12-19T03:49:34;102486.94;;;0.05;71.99
76311;BME280;65120;59.304;18.294;2022-12-19T03:52:09;102498.03;;;0.04;71.88
76311;BME280;65120;59.304;18.294;2022-12-19T03:54:40;102493.78;;;0.04;72.12
76311;BME280;65120;59.304;18.294;2022-12-19T03:57:10;102496.34;;;0.04;72.22
76311;BME280;65120;59.304;18.294;2022-12-19T03:59:44;102488.47;;;0.01;72.05
76311;BME280;65120;59.304;18.294;2022-12-19T04:02:14;102498.91;;;0.04;72.75
76311;BME280;65120;59.304;18.294;2022-12-19T04:04:44;102502.47;;;0.06;71.89
76311;BME280;65120;59.304;18.294;2022-12-19T04:07:13;102497.31;;;0.06;72.39
76311;BME280;65120;59.304;18.294;2022-12-19T04:09:42;102488.78;;;0.07;72.63
76311;BME280;65120;59.304;18.294;2022-12-19T04:12:13;102481.91;;;0.06;72.41
76311;BME280;65120;59.304;18.294;2022-12-19T04:14:41;102486.38;;;0.10;73.02
76311;BME280;65120;59.304;18.294;2022-12-19T04:17:14;102477.84;;;0.11;72.26
76311;BME280;65120;59.304;18.294;2022-12-19T04:19:48;102470.25;;;0.13;72.69
76311;BME280;65120;59.304;18.294;2022-12-19T04:22:21;102463.25;;;0.10;72.68
76311;BME280;65120;59.304;18.294;2022-12-19T04:24:52;102464.38;;;0.15;72.42
76311;BME280;65120;59.304;18.294;2022-12-19T04:27:20;102472.16;;;0.17;72.36
76311;BME280;65120;59.304;18.294;2022-12-19T04:29:48;102467.09;;;0.18;72.54
76311;BME280;65120;59.304;18.294;2022-12-19T04:32:19;102465.50;;;0.20;72.75
76311;BME280;65120;59.304;18.294;2022-12-19T04:34:46;102458.72;;;0.22;72.68
76311;BME280;65120;59.304;18.294;2022-12-19T04:37:13;102452.81;;;0.24;73.02
76311;BME280;65120;59.304;18.294;2022-12-19T04:39:40;102460.66;;;0.27;72.72
76311;BME280;65120;59.304;18.294;2022-12-19T04:42:06;102444.28;;;0.25;73.25
76311;BME280;65120;59.304;18.294;2022-12-19T04:44:33;102448.03;;;0.31;72.99
76311;BME280;65120;59.304;18.294;2022-12-19T04:47:00;102458.31;;;0.31;73.35
76311;BME280;65120;59.304;18.294;2022-12-19T04:49:28;102438.31;;;0.26;73.09
76311;BME280;65120;59.304;18.294;2022-12-19T04:51:55;102444.72;;;0.34;73.31
76311;BME280;65120;59.304;18.294;2022-12-19T04:54:21;102450.84;;;0.36;73.07
76311;BME280;65120;59.304;18.294;2022-12-19T04:56:48;102441.38;;;0.35;72.90
76311;BME280;65120;59.304;18.294;2022-12-19T04:59:15;102446.72;;;0.39;73.26
76311;BME280;65120;59.304;18.294;2022-12-19T05:01:42;102448.41;;;0.39;72.95
76311;BME280;65120;59.304;18.294;2022-12-19T05:04:08;102445.94;;;0.40;72.78
76311;BME280;65120;59.304;18.294;2022-12-19T05:06:37;102446.00;;;0.42;73.05
76311;BME280;65120;59.304;18.294;2022-12-19T05:09:04;102446.88;;;0.42;72.73
76311;BME280;65120;59.304;18.294;2022-12-19T05:11:30;102444.41;;;0.44;73.59
76311;BME280;65120;59.304;18.294;2022-12-19T05:13:57;102447.94;;;0.46;73.59
76311;BME280;65120;59.304;18.294;2022-12-19T05:16:24;102446.28;;;0.48;73.11
76311;BME280;65120;59.304;18.294;2022-12-19T05:18:52;102435.09;;;0.46;73.75
76311;BME280;65120;59.304;18.294;2022-12-19T05:21:19;102440.28;;;0.48;73.65
76311;BME280;65120;59.304;18.294;2022-12-19T05:23:47;102443.09;;;0.52;73.20
76311;BME280;65120;59.304;18.294;2022-12-19T05:26:15;102444.94;;;0.55;73.27
76311;BME280;65120;59.304;18.294;2022-12-19T05:28:42;102446.78;;;0.57;73.70
76311;BME280;65120;59.304;18.294;2022-12-19T05:31:11;102443.47;;;0.60;74.41
76311;BME280;65120;59.304;18.294;2022-12-19T05:33:39;102440.97;;;0.61;74.15
76311;BME280;65120;59.304;18.294;2022-12-19T05:36:08;102444.41;;;0.62;74.46
76311;BME280;65120;59.304;18.294;2022-12-19T05:38:35;102436.94;;;0.66;74.56
76311;BME280;65120;59.304;18.294;2022-12-19T05:41:07;102438.69;;;0.67;74.86
76311;BME280;65120;59.304;18.294;2022-12-19T05:43:34;102438.84;;;0.71;74.31
76311;BME280;65120;59.304;18.294;2022-12-19T05:46:02;102436.41;;;0.74;74.76
76311;BME280;65120;59.304;18.294;2022-12-19T05:48:29;102436.50;;;0.75;74.12
76311;BME280;65120;59.304;18.294;2022-12-19T05:50:56;102435.75;;;0.78;74.39
76311;BME280;65120;59.304;18.294;2022-12-19T05:53:23;102434.16;;;0.80;74.97
76311;BME280;65120;59.304;18.294;2022-12-19T05:55:52;102430.81;;;0.82;74.63
76311;BME280;65120;59.304;18.294;2022-12-19T05:58:21;102440.38;;;0.85;74.44
76311;BME280;65120;59.304;18.294;2022-12-19T06:00:48;102438.78;;;0.87;74.51
76311;BME280;65120;59.304;18.294;2022-12-19T06:03:14;102430.22;;;0.88;74.53
76311;BME280;65120;59.304;18.294;2022-12-19T06:05:41;102435.53;;;0.91;74.71
76311;BME280;65120;59.304;18.294;2022-12-19T06:08:08;102427.00;;;0.92;75.11
76311;BME280;65120;59.304;18.294;2022-12-19T06:10:35;102430.59;;;0.96;75.16
76311;BME280;65120;59.304;18.294;2022-12-19T06:13:01;102428.91;;;0.96;74.58
76311;BME280;65120;59.304;18.294;2022-12-19T06:15:30;102431.63;;;0.99;75.12
76311;BME280;65120;59.304;18.294;2022-12-19T06:17:56;102433.41;;;1.00;74.77
76311;BME280;65120;59.304;18.294;2022-12-19T06:20:23;102430.00;;;1.01;74.24
76311;BME280;65120;59.304;18.294;2022-12-19T06:22:50;102427.56;;;1.04;74.88
76311;BME280;65120;59.304;18.294;2022-12-19T06:25:16;102426.78;;;1.05;74.73
76311;BME280;65120;59.304;18.294;2022-12-19T06:27:43;102422.56;;;1.07;74.49
76311;BME280;65120;59.304;18.294;2022-12-19T06:30:10;102422.66;;;1.09;74.54
76311;BME280;65120;59.304;18.294;2022-12-19T06:32:39;102414.13;;;1.10;74.92
76311;BME280;65120;59.304;18.294;2022-12-19T06:35:06;102416.84;;;1.13;74.80
76311;BME280;65120;59.304;18.294;2022-12-19T06:37:33;102418.53;;;1.12;74.63
76311;BME280;65120;59.304;18.294;2022-12-19T06:40:00;102426.47;;;1.17;75.23
76311;BME280;65120;59.304;18.294;2022-12-19T06:42:27;102423.09;;;1.18;74.73
76311;BME280;65120;59.304;18.294;2022-12-19T06:44:54;102408.38;;;1.16;74.89
76311;BME280;65120;59.304;18.294;2022-12-19T06:47:21;102409.47;;;1.21;75.23
76311;BME280;65120;59.304;18.294;2022-12-19T06:49:50;102411.22;;;1.22;74.49
76311;BME280;65120;59.304;18.294;2022-12-19T06:52:17;102407.03;;;1.24;74.00
76311;BME280;65120;59.304;18.294;2022-12-19T06:54:43;102401.88;;;1.24;74.50
76311;BME280;65120;59.304;18.294;2022-12-19T06:57:10;102410.56;;;1.26;74.93
76311;BME280;65120;59.304;18.294;2022-12-19T06:59:37;102407.19;;;1.27;74.82
76311;BME280;65120;59.304;18.294;2022-12-19T07:02:14;102396.88;;;1.27;74.52
76311;BME280;65120;59.304;18.294;2022-12-19T07:04:46;102403.00;;;1.29;75.24
76311;BME280;65120;59.304;18.294;2022-12-19T07:07:15;102395.25;;;1.29;75.20
76311;BME280;65120;59.304;18.294;2022-12-19T07:09:42;102388.50;;;1.31;74.70
76311;BME280;65120;59.304;18.294;2022-12-19T07:12:09;102396.28;;;1.32;74.49
76311;BME280;65120;59.304;18.294;2022-12-19T07:14:35;102397.16;;;1.33;74.48
76311;BME280;65120;59.304;18.294;2022-12-19T07:17:03;102395.53;;;1.35;74.28
76311;BME280;65120;59.304;18.294;2022-12-19T07:19:31;102390.38;;;1.35;74.33
76311;BME280;65120;59.304;18.294;2022-12-19T07:21:59;102381.03;;;1.37;74.53
76311;BME280;65120;59.304;18.294;2022-12-19T07:24:29;102378.47;;;1.37;74.57
76311;BME280;65120;59.304;18.294;2022-12-19T07:26:56;102375.16;;;1.40;74.45
76311;BME280;65120;59.304;18.294;2022-12-19T07:29:23;102378.59;;;1.40;73.97
76311;BME280;65120;59.304;18.294;2022-12-19T07:31:50;102368.31;;;1.40;74.57
76311;BME280;65120;59.304;18.294;2022-12-19T07:34:16;102369.19;;;1.41;74.74
76311;BME280;65120;59.304;18.294;2022-12-19T07:36:43;102370.88;;;1.40;74.96
76311;BME280;65120;59.304;18.294;2022-12-19T07:39:10;102366.66;;;1.42;74.11
76311;BME280;65120;59.304;18.294;2022-12-19T07:41:38;102362.47;;;1.44;74.46
76311;BME280;65120;59.304;18.294;2022-12-19T07:44:05;102357.94;;;1.39;74.42
76311;BME280;65120;59.304;18.294;2022-12-19T07:46:32;102364.09;;;1.42;74.58
76311;BME280;65120;59.304;18.294;2022-12-19T07:48:59;102373.72;;;1.46;74.54
76311;BME280;65120;59.304;18.294;2022-12-19T07:51:26;102347.44;;;1.34;74.33
76311;BME280;65120;59.304;18.294;2022-12-19T07:53:53;102367.84;;;1.49;74.74
76311;BME280;65120;59.304;18.294;2022-12-19T07:56:19;102366.13;;;1.49;74.65
76311;BME280;65120;59.304;18.294;2022-12-19T07:58:47;102358.41;;;1.49;74.17
76311;BME280;65120;59.304;18.294;2022-12-19T08:01:14;102353.25;;;1.49;74.76
76311;BME280;65120;59.304;18.294;2022-12-19T08:03:41;102351.63;;;1.51;73.90
76311;BME280;65120;59.304;18.294;2022-12-19T08:06:08;102349.84;;;1.50;74.93
76311;BME280;65120;59.304;18.294;2022-12-19T08:08:35;102351.69;;;1.53;74.85
76311;BME280;65120;59.304;18.294;2022-12-19T08:11:07;102339.69;;;1.53;75.07
76311;BME280;65120;59.304;18.294;2022-12-19T08:13:33;102338.81;;;1.53;74.41
76311;BME280;65120;59.304;18.294;2022-12-19T08:16:02;102345.75;;;1.54;74.37
76311;BME280;65120;59.304;18.294;2022-12-19T08:18:28;102341.47;;;1.54;74.09
76311;BME280;65120;59.304;18.294;2022-12-19T08:20:55;102336.31;;;1.54;74.62
76311;BME280;65120;59.304;18.294;2022-12-19T08:23:22;102335.50;;;1.55;74.58
76311;BME280;65120;59.304;18.294;2022-12-19T08:25:58;102331.28;;;1.57;74.89
76311;BME280;65120;59.304;18.294;2022-12-19T08:28:24;102329.50;;;1.56;74.47
76311;BME280;65120;59.304;18.294;2022-12-19T08:30:51;102314.75;;;1.52;73.60
76311;BME280;65120;59.304;18.294;2022-12-19T08:33:19;102324.38;;;1.56;74.46
76311;BME280;65120;59.304;18.294;2022-12-19T08:35:46;102317.59;;;1.58;73.87
76311;BME280;65120;59.304;18.294;2022-12-19T08:38:13;102315.09;;;1.60;73.98
76311;BME280;65120;59.304;18.294;2022-12-19T08:40:39;102313.31;;;1.59;74.34
76311;BME280;65120;59.304;18.294;2022-12-19T08:43:06;102315.97;;;1.61;74.13
76311;BME280;65120;59.304;18.294;2022-12-19T08:45:33;102305.66;;;1.61;74.02
76311;BME280;65120;59.304;18.294;2022-12-19T08:48:00;102305.66;;;1.61;73.72
76311;BME280;65120;59.304;18.294;2022-12-19T08:50:28;102297.13;;;1.62;73.55
76311;BME280;65120;59.304;18.294;2022-12-19T08:52:54;102295.38;;;1.61;73.94
76311;BME280;65120;59.304;18.294;2022-12-19T08:55:21;102291.84;;;1.58;73.49
76311;BME280;65120;59.304;18.294;2022-12-19T08:57:48;102278.66;;;1.51;72.95
76311;BME280;65120;59.304;18.294;2022-12-19T09:00:15;102282.41;;;1.59;73.06
76311;BME280;65120;59.304;18.294;2022-12-19T09:02:42;102284.13;;;1.58;73.40
76311;BME280;65120;59.304;18.294;2022-12-19T09:05:09;102277.25;;;1.59;73.49
76311;BME280;65120;59.304;18.294;2022-12-19T09:07:37;102277.25;;;1.59;73.21
76311;BME280;65120;59.304;18.294;2022-12-19T09:10:06;102277.22;;;1.57;73.73
76311;BME280;65120;59.304;18.294;2022-12-19T09:12:33;102265.94;;;1.55;72.59
76311;BME280;65120;59.304;18.294;2022-12-19T09:14:59;102269.47;;;1.57;73.05
76311;BME280;65120;59.304;18.294;2022-12-19T09:17:27;102257.41;;;1.56;72.81
76311;BME280;65120;59.304;18.294;2022-12-19T09:19:53;102245.44;;;1.57;72.92
76311;BME280;65120;59.304;18.294;2022-12-19T09:22:20;102242.84;;;1.57;72.83
76311;BME280;65120;59.304;18.294;2022-12-19T09:24:48;102242.78;;;1.55;72.94
76311;BME280;65120;59.304;18.294;2022-12-19T09:27:15;102242.91;;;1.58;72.53
76311;BME280;65120;59.304;18.294;2022-12-19T09:29:42;102235.19;;;1.58;72.49
76311;BME280;65120;59.304;18.294;2022-12-19T09:32:09;102226.50;;;1.56;73.25
76311;BME280;65120;59.304;18.294;2022-12-19T09:34:36;102233.44;;;1.57;72.67
76311;BME280;65120;59.304;18.294;2022-12-19T09:37:05;102228.28;;;1.57;72.21
76311;BME280;65120;59.304;18.294;2022-12-19T09:39:32;102223.13;;;1.57;72.50
76311;BME280;65120;59.304;18.294;2022-12-19T09:42:20;102214.44;;;1.55;72.82
76311;BME280;65120;59.304;18.294;2022-12-19T09:45:07;102212.81;;;1.57;72.88
76311;BME280;65120;59.304;18.294;2022-12-19T09:47:38;102205.91;;;1.56;72.69
76311;BME280;65120;59.304;18.294;2022-12-19T09:50:18;102201.66;;;1.57;73.01
76311;BME280;65120;59.304;18.294;2022-12-19T09:52:53;102194.72;;;1.56;72.18
76311;BME280;65120;59.304;18.294;2022-12-19T09:55:23;102180.13;;;1.56;72.77
76311;BME280;65120;59.304;18.294;2022-12-19T09:57:57;102178.47;;;1.57;72.50
76311;BME280;65120;59.304;18.294;2022-12-19T10:00:31;102176.78;;;1.57;72.51
76311;BME280;65120;59.304;18.294;2022-12-19T10:03:03;102170.75;;;1.57;72.62
76311;BME280;65120;59.304;18.294;2022-12-19T10:05:37;102175.00;;;1.56;72.86
76311;BME280;65120;59.304;18.294;2022-12-19T10:08:15;102150.78;;;1.51;72.62
76311;BME280;65120;59.304;18.294;2022-12-19T10:10:57;102154.53;;;1.60;72.80
76311;BME280;65120;59.304;18.294;2022-12-19T10:13:35;102153.59;;;1.57;71.86
76311;BME280;65120;59.304;18.294;2022-12-19T10:16:13;102144.25;;;1.60;72.25
76311;BME280;65120;59.304;18.294;2022-12-19T10:18:48;102136.44;;;1.58;73.10
76311;BME280;65120;59.304;18.294;2022-12-19T10:21:32;102138.25;;;1.61;72.19
76311;BME280;65120;59.304;18.294;2022-12-19T10:24:14;102142.56;;;1.62;72.33
76311;BME280;65120;59.304;18.294;2022-12-19T10:26:48;102134.84;;;1.62;72.95
76311;BME280;65120;59.304;18.294;2022-12-19T10:29:41;102137.50;;;1.63;72.09
76311;BME280;65120;59.304;18.294;2022-12-19T10:32:16;102122.69;;;1.57;71.71
76311;BME280;65120;59.304;18.294;2022-12-19T10:34:46;102132.41;;;1.65;72.76
76311;BME280;65120;59.304;18.294;2022-12-19T10:37:17;102130.72;;;1.65;72.39
76311;BME280;65120;59.304;18.294;2022-12-19T10:40:05;102133.34;;;1.67;72.02
76311;BME280;65120;59.304;18.294;2022-12-19T10:42:47;102091.69;;;1.56;72.82
76311;BME280;65120;59.304;18.294;2022-12-19T10:45:18;102113.63;;;1.67;72.70
76311;BME280;65120;59.304;18.294;2022-12-19T10:47:46;102105.00;;;1.67;71.75
76311;BME280;65120;59.304;18.294;2022-12-19T10:50:19;102122.38;;;1.71;72.35
76311;BME280;65120;59.304;18.294;2022-12-19T10:52:52;102120.69;;;1.73;72.01
76311;BME280;65120;59.304;18.294;2022-12-19T10:55:38;102117.31;;;1.74;72.09
76311;BME280;65120;59.304;18.294;2022-12-19T10:58:19;102117.31;;;1.74;72.39
76311;BME280;65120;59.304;18.294;2022-12-19T11:01:02;102112.19;;;1.74;72.32
76311;BME280;65120;59.304;18.294;2022-12-19T11:03:31;102087.69;;;1.63;72.48
76311;BME280;65120;59.304;18.294;2022-12-19T11:05:59;102102.00;;;1.77;72.24
76311;BME280;65120;59.304;18.294;2022-12-19T11:08:28;102089.09;;;1.77;71.99
76311;BME280;65120;59.304;18.294;2022-12-19T11:11:09;102090.94;;;1.79;72.19
76311;BME280;65120;59.304;18.294;2022-12-19T11:13:41;102071.19;;;1.80;72.44
76311;BME280;65120;59.304;18.294;2022-12-19T11:16:10;102065.16;;;1.79;72.65
76311;BME280;65120;59.304;18.294;2022-12-19T11:18:39;102042.63;;;1.74;71.73
76311;BME280;65120;59.304;18.294;2022-12-19T11:21:15;102049.84;;;1.84;72.47
76311;BME280;65120;59.304;18.294;2022-12-19T11:23:44;102035.34;;;1.86;71.99
76311;BME280;65120;59.304;18.294;2022-12-19T11:26:35;102024.06;;;1.83;71.91
76311;BME280;65120;59.304;18.294;2022-12-19T11:29:17;102028.56;;;1.88;72.58
76311;BME280;65120;59.304;18.294;2022-12-19T11:31:47;102021.69;;;1.89;72.24
76311;BME280;65120;59.304;18.294;2022-12-19T11:34:17;102000.75;;;1.79;71.91
76311;BME280;65120;59.304;18.294;2022-12-19T11:36:49;102009.69;;;1.89;71.96
76311;BME280;65120;59.304;18.294;2022-12-19T11:39:20;102013.25;;;1.93;72.66
76311;BME280;65120;59.304;18.294;2022-12-19T11:41:59;101988.13;;;1.87;71.85
76311;BME280;65120;59.304;18.294;2022-12-19T11:44:31;102004.75;;;1.95;72.42
76311;BME280;65120;59.304;18.294;2022-12-19T11:47:11;101997.97;;;1.97;72.29
76311;BME280;65120;59.304;18.294;2022-12-19T11:49:47;101986.81;;;1.98;72.00
76311;BME280;65120;59.304;18.294;2022-12-19T11:52:35;101983.47;;;2.01;72.27
76311;BME280;65120;59.304;18.294;2022-12-19T11:55:03;101969.75;;;2.02;72.05
76311;BME280;65120;59.304;18.294;2022-12-19T11:57:31;101968.09;;;2.02;71.67
76311;BME280;65120;59.304;18.294;2022-12-19T11:59:58;101944.53;;;1.93;71.74
76311;BME280;65120;59.304;18.294;2022-12-19T12:05:35;101971.66;;;2.06;72.40
76311;BME280;65120;59.304;18.294;2022-12-19T12:08:28;101971.69;;;2.08;72.13
76311;BME280;65120;59.304;18.294;2022-12-19T12:11:01;101968.19;;;2.06;71.80
76311;BME280;65120;59.304;18.294;2022-12-19T12:13:36;101954.38;;;2.03;72.02
76311;BME280;65120;59.304;18.294;2022-12-19T12:16:08;101944.06;;;2.03;72.69
76311;BME280;65120;59.304;18.294;2022-12-19T12:18:52;101940.94;;;2.12;71.86
76311;BME280;65120;59.304;18.294;2022-12-19T12:21:30;101930.63;;;2.12;72.40
76311;BME280;65120;59.304;18.294;2022-12-19T12:24:07;101928.09;;;2.14;72.20
76311;BME280;65120;59.304;18.294;2022-12-19T12:26:45;101926.44;;;2.16;72.41
76311;BME280;65120;59.304;18.294;2022-12-19T12:29:19;101924.78;;;2.18;71.89
76311;BME280;65120;59.304;18.294;2022-12-19T12:32:09;101919.72;;;2.19;72.08
76311;BME280;65120;59.304;18.294;2022-12-19T12:34:48;101914.59;;;2.21;72.31
76311;BME280;65120;59.304;18.294;2022-12-19T12:37:27;101898.28;;;2.22;72.30
76311;BME280;65120;59.304;18.294;2022-12-19T12:40:12;101906.94;;;2.24;71.56
76311;BME280;65120;59.304;18.294;2022-12-19T12:42:45;101902.72;;;2.26;71.98
76311;BME280;65120;59.304;18.294;2022-12-19T12:45:19;101901.09;;;2.28;71.81
76311;BME280;65120;59.304;18.294;2022-12-19T12:47:50;101876.00;;;2.24;72.50
76311;BME280;65120;59.304;18.294;2022-12-19T12:50:20;101890.88;;;2.31;72.37
76311;BME280;65120;59.304;18.294;2022-12-19T12:52:50;101885.75;;;2.33;71.51
76311;BME280;65120;59.304;18.294;2022-12-19T12:55:23;101875.41;;;2.31;71.91
76311;BME280;65120;59.304;18.294;2022-12-19T12:57:51;101875.50;;;2.34;71.88
76311;BME280;65120;59.304;18.294;2022-12-19T13:00:29;101868.72;;;2.36;71.50
76311;BME280;65120;59.304;18.294;2022-12-19T13:03:02;101858.25;;;2.33;71.51
76311;BME280;65120;59.304;18.294;2022-12-19T13:05:51;101864.44;;;2.38;71.94
76311;BME280;65120;59.304;18.294;2022-12-19T13:08:34;101853.34;;;2.39;71.96
76311;BME280;65120;59.304;18.294;2022-12-19T13:11:04;101849.03;;;2.40;72.04
76311;BME280;65120;59.304;18.294;2022-12-19T13:13:50;101844.78;;;2.42;71.93